createdAt,value
2023-06-18T00:00:14.457Z,18.95
2023-06-18T00:02:42.319Z,19.09
2023-06-18T00:05:09.785Z,18.83
2023-06-18T00:07:37.178Z,18.32
2023-06-18T00:10:05.614Z,18.67
2023-06-18T00:12:33.010Z,19.24
2023-06-18T00:15:00.547Z,18.78
2023-06-18T00:17:28.225Z,19.13
2023-06-18T00:19:55.618Z,18.52
2023-06-18T00:22:24.236Z,18.56
2023-06-18T00:24:51.901Z,18.80
2023-06-18T00:27:21.220Z,18.64
2023-06-18T00:29:48.618Z,18.77
2023-06-18T00:32:16.346Z,18.74
2023-06-18T00:34:43.780Z,18.62
2023-06-18T00:37:12.085Z,18.50
2023-06-18T00:39:39.872Z,18.43
2023-06-18T00:42:08.800Z,17.62
2023-06-18T00:44:41.105Z,18.14
2023-06-18T00:47:12.912Z,18.50
2023-06-18T00:49:43.715Z,18.51
2023-06-18T00:52:13.666Z,18.30
2023-06-18T00:54:41.994Z,18.49
2023-06-18T00:57:09.677Z,18.34
2023-06-18T00:59:38.598Z,18.26
2023-06-18T01:02:06.419Z,18.54
2023-06-18T01:04:34.256Z,18.61
2023-06-18T01:07:03.859Z,19.01
2023-06-18T01:09:31.798Z,19.06
2023-06-18T01:12:01.489Z,19.08
2023-06-18T01:14:29.806Z,18.65
2023-06-18T01:16:58.927Z,19.09
2023-06-18T01:19:47.528Z,18.32
2023-06-18T01:22:27.605Z,18.94
2023-06-18T01:25:03.328Z,18.82
2023-06-18T01:27:34.978Z,18.52
2023-06-18T01:30:02.679Z,18.43
2023-06-18T01:32:30.727Z,18.23
2023-06-18T01:34:58.504Z,18.32
2023-06-18T01:37:49.597Z,18.04
2023-06-18T01:40:26.387Z,18.10
2023-06-18T01:42:57.011Z,17.65
2023-06-18T01:45:30.211Z,18.20
2023-06-18T01:48:00.370Z,18.03
2023-06-18T01:50:28.075Z,17.81
2023-06-18T01:52:55.724Z,18.01
2023-06-18T01:55:23.180Z,17.99
2023-06-18T01:57:51.010Z,17.75
2023-06-18T02:00:19.602Z,17.97
2023-06-18T02:02:48.155Z,17.59
2023-06-18T02:05:15.628Z,17.99
2023-06-18T02:07:43.057Z,17.87
2023-06-18T02:10:11.186Z,17.66
2023-06-18T02:12:38.541Z,17.90
2023-06-18T02:15:08.915Z,18.18
2023-06-18T02:17:36.636Z,18.38
2023-06-18T02:20:04.873Z,17.98
2023-06-18T02:22:32.637Z,17.89
2023-06-18T02:25:00.032Z,17.80
2023-06-18T02:27:27.713Z,17.77
2023-06-18T02:29:55.084Z,18.18
2023-06-18T02:32:22.510Z,17.95
2023-06-18T02:34:50.190Z,17.93
2023-06-18T02:37:17.708Z,18.07
2023-06-18T02:39:45.067Z,18.30
2023-06-18T02:42:13.114Z,18.16
2023-06-18T02:44:43.664Z,17.88
2023-06-18T02:47:11.153Z,18.10
2023-06-18T02:49:38.801Z,17.53
2023-06-18T02:52:07.600Z,17.65
2023-06-18T02:54:35.074Z,17.34
2023-06-18T02:57:02.814Z,16.86
2023-06-18T02:59:30.323Z,17.64
2023-06-18T03:01:57.941Z,17.34
2023-06-18T03:04:25.694Z,17.65
2023-06-18T03:06:54.699Z,17.75
2023-06-18T03:09:22.109Z,17.95
2023-06-18T03:11:50.425Z,17.54
2023-06-18T03:14:18.139Z,17.70
2023-06-18T03:16:46.113Z,17.72
2023-06-18T03:19:13.865Z,16.91
2023-06-18T03:21:41.882Z,17.81
2023-06-18T03:24:09.615Z,17.92
2023-06-18T03:26:37.331Z,17.60
2023-06-18T03:29:04.892Z,18.11
2023-06-18T03:31:33.711Z,17.76
2023-06-18T03:34:02.610Z,18.32
2023-06-18T03:36:30.596Z,18.04
2023-06-18T03:38:58.052Z,18.35
2023-06-18T03:41:26.830Z,18.27
2023-06-18T03:43:54.256Z,17.72
2023-06-18T03:46:21.927Z,18.09
2023-06-18T03:48:50.438Z,18.55
2023-06-18T03:51:18.030Z,18.77
2023-06-18T03:53:46.062Z,18.78
2023-06-18T03:56:13.971Z,19.17
2023-06-18T03:58:41.592Z,19.02
2023-06-18T04:01:09.550Z,19.00
2023-06-18T04:03:40.850Z,19.22
2023-06-18T04:06:08.324Z,18.93
2023-06-18T04:08:35.889Z,19.35
2023-06-18T04:11:03.661Z,19.00
2023-06-18T04:13:31.792Z,19.39
2023-06-18T04:15:59.991Z,19.26
2023-06-18T04:18:27.819Z,19.44
2023-06-18T04:20:55.265Z,19.45
2023-06-18T04:23:22.949Z,19.74
2023-06-18T04:25:50.618Z,19.56
2023-06-18T04:28:18.382Z,19.84
2023-06-18T04:30:45.790Z,19.47
2023-06-18T04:33:13.643Z,20.22
2023-06-18T04:35:42.495Z,21.47
2023-06-18T04:38:12.147Z,22.02
2023-06-18T04:40:40.212Z,23.09
2023-06-18T04:43:07.608Z,23.66
2023-06-18T04:45:35.261Z,24.07
2023-06-18T04:48:04.199Z,25.15
2023-06-18T04:50:33.173Z,24.72
2023-06-18T04:53:01.122Z,25.29
2023-06-18T04:55:29.483Z,25.81
2023-06-18T04:57:57.237Z,26.64
2023-06-18T05:00:24.881Z,27.58
2023-06-18T05:02:52.925Z,27.76
2023-06-18T05:05:20.452Z,28.61
2023-06-18T05:07:48.151Z,28.94
2023-06-18T05:10:15.908Z,28.30
2023-06-18T05:12:43.370Z,28.85
2023-06-18T05:15:10.832Z,29.58
2023-06-18T05:17:38.749Z,28.73
2023-06-18T05:20:07.672Z,29.70
2023-06-18T05:22:35.280Z,30.05
2023-06-18T05:25:05.281Z,29.63
2023-06-18T05:27:33.638Z,29.59
2023-06-18T05:30:01.332Z,30.41
2023-06-18T05:32:30.340Z,28.02
2023-06-18T05:34:58.292Z,29.52
2023-06-18T05:37:25.868Z,30.01
2023-06-18T05:39:53.551Z,30.01
2023-06-18T05:42:22.008Z,30.78
2023-06-18T05:44:49.476Z,30.85
2023-06-18T05:47:17.259Z,31.65
2023-06-18T05:49:44.986Z,30.37
2023-06-18T05:52:12.422Z,30.35
2023-06-18T05:54:40.785Z,30.40
2023-06-18T05:57:08.157Z,30.32
2023-06-18T05:59:35.644Z,30.35
2023-06-18T06:02:06.318Z,31.17
2023-06-18T06:04:34.048Z,31.66
2023-06-18T06:07:01.423Z,31.78
2023-06-18T06:09:28.879Z,31.01
2023-06-18T06:11:57.031Z,31.92
2023-06-18T06:14:24.584Z,31.53
2023-06-18T06:16:58.416Z,32.08
2023-06-18T06:19:26.689Z,32.77
2023-06-18T06:21:54.147Z,31.63
2023-06-18T06:24:22.600Z,32.72
2023-06-18T06:26:50.281Z,33.60
2023-06-18T06:29:18.247Z,34.17
2023-06-18T06:31:45.884Z,35.07
2023-06-18T06:34:13.750Z,34.85
2023-06-18T06:36:41.788Z,33.23
2023-06-18T06:39:10.052Z,33.89
2023-06-18T06:41:37.710Z,34.00
2023-06-18T06:44:05.390Z,34.79
2023-06-18T06:46:33.834Z,34.90
2023-06-18T06:49:08.202Z,35.87
2023-06-18T06:51:36.551Z,35.53
2023-06-18T06:54:05.715Z,36.07
2023-06-18T06:56:33.298Z,36.95
2023-06-18T06:59:00.962Z,37.07
2023-06-18T07:01:28.716Z,36.90
2023-06-18T07:03:56.227Z,36.00
2023-06-18T07:06:23.613Z,36.64
2023-06-18T07:08:51.908Z,37.13
2023-06-18T07:11:19.294Z,37.39
2023-06-18T07:13:46.822Z,36.33
2023-06-18T07:16:14.498Z,36.99
2023-06-18T07:18:41.900Z,37.05
2023-06-18T07:21:09.303Z,38.05
2023-06-18T07:23:37.125Z,38.11
2023-06-18T07:26:04.663Z,38.30
2023-06-18T07:28:32.062Z,37.42
2023-06-18T07:30:59.746Z,36.47
2023-06-18T07:33:27.134Z,36.41
2023-06-18T07:35:54.562Z,35.27
2023-06-18T07:38:23.557Z,37.35
2023-06-18T07:40:51.421Z,37.10
2023-06-18T07:43:18.770Z,36.99
2023-06-18T07:45:46.407Z,38.93
2023-06-18T07:48:13.786Z,39.15
2023-06-18T07:50:41.496Z,38.24
2023-06-18T07:53:09.124Z,37.39
2023-06-18T07:55:36.533Z,37.36
2023-06-18T07:58:03.953Z,36.27
2023-06-18T08:00:31.658Z,34.19
2023-06-18T08:02:59.356Z,35.28
2023-06-18T08:05:26.848Z,37.40
2023-06-18T08:07:54.242Z,36.95
2023-06-18T08:10:22.091Z,36.55
2023-06-18T08:12:49.657Z,35.90
2023-06-18T08:15:17.165Z,37.48
2023-06-18T08:17:44.838Z,37.25
2023-06-18T08:20:12.561Z,36.72
2023-06-18T08:22:39.985Z,36.22
2023-06-18T08:25:07.995Z,34.96
2023-06-18T08:27:35.799Z,35.68
2023-06-18T08:30:06.916Z,33.95
2023-06-18T08:32:34.608Z,36.07
2023-06-18T08:35:02.406Z,35.67
2023-06-18T08:37:31.194Z,36.06
2023-06-18T08:39:58.841Z,36.28
2023-06-18T08:42:26.213Z,37.33
2023-06-18T08:44:54.579Z,36.13
2023-06-18T08:47:22.771Z,37.55
2023-06-18T08:49:51.109Z,38.13
2023-06-18T08:52:19.622Z,38.07
2023-06-18T08:54:49.107Z,37.69
2023-06-18T08:57:46.589Z,38.03
2023-06-18T09:00:14.404Z,38.51
2023-06-18T09:02:42.342Z,37.56
2023-06-18T09:05:11.779Z,38.43
2023-06-18T09:07:39.831Z,38.51
2023-06-18T09:10:07.439Z,39.11
2023-06-18T09:12:34.843Z,38.18
2023-06-18T09:15:03.280Z,38.90
2023-06-18T09:17:31.022Z,37.46
2023-06-18T09:19:58.457Z,36.59
2023-06-18T09:22:26.469Z,38.82
2023-06-18T09:24:58.924Z,38.89
2023-06-18T09:27:33.548Z,37.93
2023-06-18T09:30:01.040Z,40.05
2023-06-18T09:32:29.068Z,38.88
2023-06-18T09:34:56.536Z,39.49
2023-06-18T09:37:24.068Z,40.98
2023-06-18T09:39:54.713Z,40.26
2023-06-18T09:42:29.052Z,38.61
2023-06-18T09:44:56.788Z,39.68
2023-06-18T09:47:24.386Z,38.80
2023-06-18T09:49:52.296Z,39.52
2023-06-18T09:52:20.417Z,39.41
2023-06-18T09:54:48.452Z,40.02
2023-06-18T09:57:17.485Z,39.80
2023-06-18T09:59:45.209Z,41.20
2023-06-18T10:02:15.825Z,40.35
2023-06-18T10:04:43.531Z,40.49
2023-06-18T10:07:17.056Z,39.99
2023-06-18T10:09:47.058Z,40.61
2023-06-18T10:12:16.364Z,39.28
2023-06-18T10:14:43.770Z,38.23
2023-06-18T10:17:25.110Z,39.46
2023-06-18T10:20:02.189Z,38.52
2023-06-18T10:22:30.458Z,37.84
2023-06-18T10:25:03.613Z,38.76
2023-06-18T10:27:31.320Z,37.98
2023-06-18T10:29:59.007Z,38.74
2023-06-18T10:32:29.640Z,39.51
2023-06-18T10:34:58.894Z,37.68
2023-06-18T10:37:27.471Z,39.38
2023-06-18T10:39:55.170Z,39.02
2023-06-18T10:42:22.849Z,38.27
2023-06-18T10:44:50.125Z,35.13
2023-06-18T10:47:21.687Z,36.67
2023-06-18T10:50:01.176Z,37.50
2023-06-18T10:52:32.121Z,37.22
2023-06-18T10:55:09.413Z,37.27
2023-06-18T10:57:38.961Z,35.27
2023-06-18T11:00:16.280Z,34.79
2023-06-18T11:02:43.873Z,32.45
2023-06-18T11:05:35.387Z,31.72
2023-06-18T11:08:06.850Z,30.94
2023-06-18T11:10:42.008Z,30.93
2023-06-18T11:13:10.621Z,31.06
2023-06-18T11:15:59.395Z,30.04
2023-06-18T11:18:28.153Z,29.65
2023-06-18T11:20:56.577Z,29.76
2023-06-18T11:23:24.429Z,28.87
2023-06-18T11:25:51.988Z,28.82
2023-06-18T11:28:19.762Z,29.24
2023-06-18T11:30:52.757Z,29.32
2023-06-18T11:33:22.578Z,29.88
2023-06-18T11:35:50.656Z,29.97
2023-06-18T11:38:21.497Z,29.95
2023-06-18T11:40:51.092Z,29.64
2023-06-18T11:43:19.079Z,29.72
2023-06-18T11:45:50.001Z,29.31
2023-06-18T11:48:19.217Z,29.33
2023-06-18T11:50:51.423Z,28.55
2023-06-18T11:53:19.086Z,28.58
2023-06-18T11:55:46.559Z,29.04
2023-06-18T11:58:16.944Z,28.87
2023-06-18T12:00:45.164Z,29.27
2023-06-18T12:03:13.524Z,29.02
2023-06-18T12:05:41.241Z,28.77
2023-06-18T12:08:09.904Z,29.27
2023-06-18T12:10:41.436Z,28.95
2023-06-18T12:13:29.281Z,29.36
2023-06-18T12:16:06.775Z,28.70
2023-06-18T12:18:39.093Z,29.04
2023-06-18T12:21:07.059Z,28.98
2023-06-18T12:23:36.861Z,28.89
2023-06-18T12:26:04.696Z,28.66
2023-06-18T12:28:34.748Z,28.72
2023-06-18T12:31:08.390Z,28.80
2023-06-18T12:33:39.455Z,28.78
2023-06-18T12:36:06.863Z,28.95
2023-06-18T12:38:46.879Z,28.44
2023-06-18T12:41:24.307Z,29.14
2023-06-18T12:43:53.496Z,28.70
2023-06-18T12:46:27.520Z,28.80
2023-06-18T12:48:56.138Z,28.87
2023-06-18T12:51:42.670Z,29.37
2023-06-18T12:54:17.090Z,29.20
2023-06-18T12:57:02.765Z,29.54
2023-06-18T12:59:30.134Z,28.40
2023-06-18T13:01:57.821Z,29.06
2023-06-18T13:04:28.214Z,29.02
2023-06-18T13:06:55.939Z,29.31
2023-06-18T13:09:23.786Z,28.94
2023-06-18T13:11:51.423Z,29.01
2023-06-18T13:14:30.606Z,29.20
2023-06-18T13:17:02.803Z,29.09
2023-06-18T13:19:40.417Z,28.66
2023-06-18T13:22:11.458Z,29.25
2023-06-18T13:24:38.887Z,29.19
2023-06-18T13:27:06.737Z,29.28
2023-06-18T13:29:34.387Z,29.11
2023-06-18T13:32:04.270Z,29.16
2023-06-18T13:34:31.811Z,29.36
2023-06-18T13:36:59.428Z,28.65
2023-06-18T13:39:27.037Z,29.15
2023-06-18T13:41:54.401Z,29.15
2023-06-18T13:44:22.021Z,28.76
2023-06-18T13:46:49.481Z,28.87
2023-06-18T13:49:17.749Z,28.88
2023-06-18T13:51:45.448Z,29.22
2023-06-18T13:54:12.802Z,28.93
2023-06-18T13:56:40.375Z,29.39
2023-06-18T13:59:08.047Z,29.34
2023-06-18T14:01:35.460Z,28.84
2023-06-18T14:04:06.416Z,28.76
2023-06-18T14:06:39.085Z,28.76
2023-06-18T14:09:07.088Z,28.59
2023-06-18T14:11:34.579Z,29.07
2023-06-18T14:14:02.088Z,29.36
2023-06-18T14:16:32.017Z,29.19
2023-06-18T14:18:59.532Z,29.08
2023-06-18T14:21:26.952Z,28.61
2023-06-18T14:23:55.174Z,28.12
2023-06-18T14:26:22.701Z,28.57
2023-06-18T14:28:50.136Z,29.14
2023-06-18T14:31:17.855Z,28.75
2023-06-18T14:33:50.256Z,29.16
2023-06-18T14:36:27.167Z,29.43
2023-06-18T14:38:54.573Z,28.43
2023-06-18T14:41:21.935Z,28.65
2023-06-18T14:43:49.575Z,29.21
2023-06-18T14:46:17.124Z,28.67
2023-06-18T14:48:44.603Z,28.19
2023-06-18T14:51:12.238Z,28.36
2023-06-18T14:53:40.075Z,28.17
2023-06-18T14:56:07.496Z,27.82
2023-06-18T14:58:35.225Z,27.84
2023-06-18T15:01:02.695Z,27.39
2023-06-18T15:03:30.199Z,28.21
2023-06-18T15:05:58.258Z,28.09
2023-06-18T15:08:25.685Z,28.38
2023-06-18T15:10:53.046Z,28.31
2023-06-18T15:13:22.138Z,27.93
2023-06-18T15:15:49.646Z,27.86
2023-06-18T15:18:17.061Z,28.06
2023-06-18T15:20:44.783Z,28.27
2023-06-18T15:23:12.215Z,28.40
2023-06-18T15:25:40.581Z,28.48
2023-06-18T15:28:08.228Z,28.51
2023-06-18T15:30:35.662Z,28.25
2023-06-18T15:33:03.105Z,28.63
2023-06-18T15:35:30.912Z,28.76
2023-06-18T15:38:01.433Z,28.32
2023-06-18T15:40:29.017Z,28.82
2023-06-18T15:42:56.743Z,28.73
2023-06-18T15:45:24.363Z,28.57
2023-06-18T15:47:52.228Z,28.76
2023-06-18T15:50:19.935Z,28.01
2023-06-18T15:52:47.330Z,27.86
2023-06-18T15:55:14.724Z,28.10
2023-06-18T15:57:42.391Z,28.21
2023-06-18T16:00:10.499Z,28.17
2023-06-18T16:02:38.388Z,28.49
2023-06-18T16:05:09.827Z,28.10
2023-06-18T16:07:39.800Z,28.43
2023-06-18T16:10:07.757Z,28.71
2023-06-18T16:12:35.161Z,28.23
2023-06-18T16:15:03.378Z,28.58
2023-06-18T16:17:31.662Z,28.34
2023-06-18T16:19:59.757Z,28.62
2023-06-18T16:22:28.025Z,27.76
2023-06-18T16:24:55.700Z,28.39
2023-06-18T16:27:23.214Z,28.54
2023-06-18T16:29:50.916Z,28.11
2023-06-18T16:32:18.329Z,28.30
2023-06-18T16:34:45.828Z,27.80
2023-06-18T16:37:13.599Z,28.36
2023-06-18T16:39:41.079Z,28.37
2023-06-18T16:42:08.558Z,28.21
2023-06-18T16:44:37.090Z,28.20
2023-06-18T16:47:04.745Z,28.26
2023-06-18T16:49:32.153Z,27.55
2023-06-18T16:52:01.249Z,27.95
2023-06-18T16:54:28.880Z,27.78
2023-06-18T16:56:56.270Z,28.40
2023-06-18T16:59:26.726Z,27.52
2023-06-18T17:01:54.168Z,27.99
2023-06-18T17:04:21.727Z,27.95
2023-06-18T17:06:49.420Z,27.35
2023-06-18T17:09:17.776Z,27.67
2023-06-18T17:11:45.607Z,28.12
2023-06-18T17:14:13.358Z,28.13
2023-06-18T17:16:40.762Z,27.82
2023-06-18T17:19:08.211Z,28.30
2023-06-18T17:21:36.205Z,28.25
2023-06-18T17:24:03.754Z,28.19
2023-06-18T17:26:32.678Z,28.40
2023-06-18T17:29:00.527Z,28.21
2023-06-18T17:31:27.983Z,28.14
2023-06-18T17:33:55.805Z,28.26
2023-06-18T17:36:23.470Z,28.06
2023-06-18T17:38:52.005Z,27.66
2023-06-18T17:41:19.657Z,28.04
2023-06-18T17:43:47.372Z,28.08
2023-06-18T17:46:15.585Z,27.89
2023-06-18T17:48:46.121Z,27.55
2023-06-18T17:51:13.825Z,27.93
2023-06-18T17:53:45.947Z,27.94
2023-06-18T17:56:13.802Z,27.93
2023-06-18T17:58:41.190Z,27.77
2023-06-18T18:01:08.706Z,27.64
2023-06-18T18:03:36.612Z,27.83
2023-06-18T18:06:04.379Z,27.57
2023-06-18T18:08:31.759Z,27.51
2023-06-18T18:10:59.410Z,27.44
2023-06-18T18:13:27.850Z,27.18
2023-06-18T18:15:57.364Z,27.06
2023-06-18T18:18:25.148Z,27.18
2023-06-18T18:20:52.759Z,27.07
2023-06-18T18:23:20.168Z,26.73
2023-06-18T18:25:47.908Z,26.27
2023-06-18T18:28:15.418Z,26.21
2023-06-18T18:30:43.003Z,26.62
2023-06-18T18:33:11.614Z,26.67
2023-06-18T18:35:39.171Z,26.66
2023-06-18T18:38:06.635Z,26.60
2023-06-18T18:40:34.256Z,26.14
2023-06-18T18:43:01.616Z,25.80
2023-06-18T18:45:29.027Z,25.62
2023-06-18T18:47:56.858Z,25.65
2023-06-18T18:50:24.611Z,25.48
2023-06-18T18:52:52.242Z,24.85
2023-06-18T18:55:19.923Z,25.11
2023-06-18T18:57:47.332Z,25.23
2023-06-18T19:00:15.119Z,25.47
2023-06-18T19:02:42.846Z,25.52
2023-06-18T19:05:10.341Z,25.17
2023-06-18T19:07:37.809Z,25.45
2023-06-18T19:10:07.234Z,25.34
2023-06-18T19:12:34.732Z,25.07
2023-06-18T19:15:02.739Z,24.73
2023-06-18T19:17:32.511Z,25.07
2023-06-18T19:19:59.908Z,25.20
2023-06-18T19:22:32.908Z,24.85
2023-06-18T19:25:00.684Z,24.97
2023-06-18T19:27:28.191Z,24.94
2023-06-18T19:29:55.669Z,24.60
2023-06-18T19:32:23.889Z,24.63
2023-06-18T19:34:52.200Z,24.47
2023-06-18T19:37:19.824Z,24.25
2023-06-18T19:39:49.174Z,24.44
2023-06-18T19:42:19.922Z,24.22
2023-06-18T19:44:47.714Z,24.32
2023-06-18T19:47:15.147Z,24.32
2023-06-18T19:49:42.541Z,24.32
2023-06-18T19:52:10.254Z,23.96
2023-06-18T19:54:40.624Z,23.93
2023-06-18T19:57:08.549Z,23.43
2023-06-18T19:59:36.234Z,23.56
2023-06-18T20:02:03.822Z,23.62
2023-06-18T20:04:31.542Z,23.77
2023-06-18T20:06:58.992Z,23.12
2023-06-18T20:09:26.570Z,23.07
2023-06-18T20:11:54.256Z,23.44
2023-06-18T20:14:21.731Z,23.36
2023-06-18T20:16:49.164Z,23.52
2023-06-18T20:19:16.833Z,23.50
2023-06-18T20:21:44.217Z,23.39
2023-06-18T20:24:11.622Z,23.38
2023-06-18T20:26:39.334Z,23.33
2023-06-18T20:29:06.758Z,23.37
2023-06-18T20:31:34.202Z,23.13
2023-06-18T20:34:01.977Z,22.69
2023-06-18T20:36:29.893Z,23.13
2023-06-18T20:38:59.985Z,23.36
2023-06-18T20:41:27.917Z,23.04
2023-06-18T20:43:55.340Z,22.93
2023-06-18T20:46:24.341Z,22.94
2023-06-18T20:48:52.066Z,23.06
2023-06-18T20:51:19.469Z,22.80
2023-06-18T20:53:46.901Z,22.97
2023-06-18T20:56:14.590Z,22.80
2023-06-18T20:58:42.045Z,22.71
2023-06-18T21:01:09.554Z,22.17
2023-06-18T21:03:42.601Z,22.16
2023-06-18T21:06:12.373Z,22.30
2023-06-18T21:08:40.646Z,22.61
2023-06-18T21:11:08.064Z,22.09
2023-06-18T21:13:35.517Z,22.40
2023-06-18T21:16:03.237Z,22.43
2023-06-18T21:18:30.640Z,22.02
2023-06-18T21:20:58.017Z,22.09
2023-06-18T21:23:25.688Z,22.02
2023-06-18T21:25:53.160Z,22.02
2023-06-18T21:28:20.923Z,22.37
2023-06-18T21:30:48.610Z,22.54
2023-06-18T21:33:16.025Z,22.85
2023-06-18T21:38:10.997Z,22.85
2023-06-18T21:40:38.386Z,22.29
2023-06-18T21:43:05.837Z,22.34
2023-06-18T21:45:34.030Z,22.26
2023-06-18T21:48:01.514Z,21.90
2023-06-18T21:50:29.089Z,22.18
2023-06-18T21:52:56.755Z,21.88
2023-06-18T21:55:24.133Z,21.79
2023-06-18T21:57:51.672Z,21.43
2023-06-18T22:00:19.357Z,21.87
2023-06-18T22:02:48.573Z,22.17
2023-06-18T22:05:16.024Z,21.97
2023-06-18T22:07:43.454Z,22.01
2023-06-18T22:10:11.781Z,21.71
2023-06-18T22:12:39.200Z,21.69
2023-06-18T22:15:07.598Z,21.91
2023-06-18T22:17:35.532Z,21.48
2023-06-18T22:20:03.752Z,21.42
2023-06-18T22:22:31.870Z,21.25
2023-06-18T22:24:59.549Z,21.56
2023-06-18T22:27:27.143Z,21.68
2023-06-18T22:29:54.586Z,21.66
2023-06-18T22:32:22.537Z,21.67
2023-06-18T22:34:50.068Z,21.51
2023-06-18T22:37:17.615Z,21.25
2023-06-18T22:39:45.286Z,21.24
2023-06-18T22:42:12.704Z,21.43
2023-06-18T22:44:40.094Z,21.73
2023-06-18T22:47:07.821Z,21.24
2023-06-18T22:49:35.216Z,21.06
2023-06-18T22:52:02.626Z,21.42
2023-06-18T22:54:30.236Z,21.27
2023-06-18T22:56:57.716Z,20.64
2023-06-18T22:59:25.149Z,21.13
2023-06-18T23:01:52.825Z,20.95
2023-06-18T23:04:20.373Z,20.67
2023-06-18T23:06:47.774Z,21.14
2023-06-18T23:09:15.546Z,21.18
2023-06-18T23:11:42.907Z,20.57
2023-06-18T23:14:10.351Z,20.79
2023-06-18T23:16:38.043Z,20.72
2023-06-18T23:19:07.162Z,21.06
2023-06-18T23:21:46.738Z,21.32
2023-06-18T23:24:15.753Z,21.47
2023-06-18T23:26:43.255Z,20.89
2023-06-18T23:29:10.942Z,20.88
2023-06-18T23:31:41.723Z,20.98
2023-06-18T23:34:09.193Z,20.97
2023-06-18T23:36:37.089Z,20.97
2023-06-18T23:39:05.217Z,21.24
2023-06-18T23:41:32.744Z,20.63
2023-06-18T23:44:00.208Z,20.30
2023-06-18T23:46:27.908Z,20.84
2023-06-18T23:48:55.403Z,20.96
2023-06-18T23:51:22.848Z,21.22
2023-06-18T23:53:50.535Z,21.12
2023-06-18T23:56:17.899Z,21.21
2023-06-18T23:58:45.331Z,21.15
